Flight Track Log - Related Links

Times and Time Zones

All times are in EDT time to prevent confusion due to time zone crossing. See the NKS464 flight status page for this flight to view local times or setup timezone preferences in your user account.

Time Position Orientation Groundspeed Altitude Reporting Facility
EDT Latitude Longitude Course Direction KTS MPH feet Rate Location/Type
Mon 08:42:47 PM 26.0830 -80.1220 76° East 157 181 1,600  Level FlightAware ADS-B
Mon 08:43:17 PM 26.0780 -80.1000 104° East 176 203 2,200 1,091 Climbing FlightAware ADS-B
Mon 08:43:42 PM 26.0680 -80.0770 116° Southeast 213 245 2,600 1,309 Climbing FlightAware ADS-B
Mon 08:44:12 PM 26.0550 -80.0430 113° Southeast 254 292 3,400 2,100 Climbing FlightAware ADS-B
Mon 08:44:22 PM 26.0540 -80.0320 96° East 251 289 4,000 3,450 Climbing FlightAware ADS-B
Mon 08:44:52 PM 26.0700 -79.9970 63° Northeast 253 291 5,700 3,200 Climbing FlightAware ADS-B
Mon 08:45:07 PM 26.0870 -79.9900 20° North 262 302 6,400 2,700 Climbing FlightAware ADS-B
Mon 08:45:32 PM 26.1200 -79.9950 352° North 289 333 7,500 3,055 Climbing FlightAware ADS-B
Mon 08:46:02 PM 26.1580 -80.0070 344° North 285 328 9,200 2,880 Climbing FlightAware ADS-B
Mon 08:46:47 PM 26.2120 -80.0380 333° Northwest 295 339 11,100 2,325 Climbing FlightAware ADS-B
Mon 08:47:22 PM 26.2500 -80.0770 317° Northwest 326 375 12,300 1,650 Climbing FlightAware ADS-B
Mon 08:48:07 PM 26.3030 -80.1310 318° Northwest 355 409 13,300 1,840 Climbing FlightAware ADS-B
Mon 08:48:37 PM 26.3400 -80.1690 317° Northwest 358 412 14,600 2,640 Climbing FlightAware ADS-B
Mon 08:49:22 PM 26.4000 -80.2190 323° Northwest 367 422 16,600 2,160 Climbing FlightAware ADS-B
Mon 08:49:52 PM 26.4460 -80.2420 336° Northwest 375 432 17,300 1,575 Climbing FlightAware ADS-B
Mon 08:50:42 PM 26.5300 -80.2850 335° Northwest 393 452 18,700 1,642 Climbing FlightAware ADS-B
Mon 08:51:27 PM 26.6070 -80.3240 336° Northwest 408 470 19,900 1,765 Climbing FlightAware ADS-B
Mon 08:52:07 PM 26.6780 -80.3600 336° Northwest 409 471 21,200 2,250 Climbing FlightAware ADS-B
Mon 08:52:47 PM 26.7450 -80.3940 336° Northwest 405 466 22,900 1,976 Climbing FlightAware ADS-B
Mon 08:53:32 PM 26.8200 -80.4330 335° Northwest 409 471 24,000 825 Climbing FlightAware ADS-B
Mon 08:54:07 PM 26.8770 -80.4630 335° Northwest 409 471 24,000  Level FlightAware ADS-B
Mon 08:54:57 PM 26.9500 -80.5010 335° Northwest 409 471 24,000  Level FlightAware ADS-B
Mon 08:55:37 PM 27.0080 -80.5310 335° Northwest 409 471 24,000  Level FlightAware ADS-B
Mon 08:56:17 PM 27.0660 -80.5620 335° Northwest 409 471 24,000  Level FlightAware ADS-B
Mon 08:56:57 PM 27.1250 -80.5930 335° Northwest 409 471 24,000 3,662 Level FlightAware ADS-B
Mon 08:57:34 PM 27.2897 -80.5167 335° Northwest 431 496 28,700 3,649 Climbing Miami Center
Mon 08:58:34 PM 27.4122 -80.5392 351° North 436 502 29,900 974 Climbing Miami Center
Mon 09:04:02 PM 28.0570 -80.7880 351° North 443 510 35,000 832 Climbing FlightAware ADS-B
Mon 09:04:42 PM 28.1280 -80.8310 332° Northwest 442 509 35,000  Level FlightAware ADS-B
Mon 09:05:27 PM 28.2110 -80.8820 332° Northwest 443 510 35,000  Level FlightAware ADS-B
Mon 09:06:07 PM 28.2830 -80.9270 331° Northwest 445 512 35,000  Level FlightAware ADS-B
Mon 09:06:52 PM 28.3630 -80.9760 332° Northwest 450 518 35,000  Level FlightAware ADS-B
Mon 09:07:32 PM 28.4380 -81.0220 332° Northwest 455 524 35,000  Level FlightAware ADS-B
Mon 09:08:17 PM 28.5240 -81.0750 332° Northwest 458 527 35,000  Level FlightAware ADS-B
Mon 09:08:57 PM 28.5940 -81.1190 331° Northwest 457 526 35,000  Level FlightAware ADS-B
Mon 09:09:32 PM 28.6600 -81.1600 331° Northwest 458 527 35,000  Level FlightAware ADS-B
Mon 09:10:12 PM 28.5530 -81.0940 152° Southeast 35,100  Climbing FlightAware ADS-B
Mon 09:10:32 PM 28.5950 -81.1200 331° Northwest 458 527 35,000  Descending FlightAware ADS-B
Mon 09:11:17 PM 28.6520 -81.1550 332° Northwest 458 527 35,100  Climbing FlightAware ADS-B
Mon 09:12:02 PM 28.7210 -81.1980 331° Northwest 458 527 35,000 -63 Descending FlightAware ADS-B
Mon 09:12:52 PM 28.8010 -81.2480 331° Northwest 457 526 35,000  Level FlightAware ADS-B
Mon 09:13:37 PM 28.8870 -81.3010 332° Northwest 455 524 35,000  Level FlightAware ADS-B
Mon 09:14:17 PM 28.9350 -81.3300 332° Northwest 457 526 35,000  Level FlightAware ADS-B
Mon 09:15:17 PM 29.0270 -81.3770 336° Northwest 457 526 35,000  Level FlightAware ADS-B
Mon 09:15:57 PM 29.0920 -81.4120 335° Northwest 457 526 35,000  Level FlightAware ADS-B
Mon 09:16:37 PM 29.1570 -81.4470 335° Northwest 457 526 35,000  Level FlightAware ADS-B
Mon 09:17:17 PM 29.2220 -81.4820 335° Northwest 457 526 35,000  Level FlightAware ADS-B
Mon 09:17:57 PM 29.2880 -81.5170 335° Northwest 457 526 35,000  Level FlightAware ADS-B
Mon 09:18:32 PM 29.7650 -81.4040 12° North 462 532 35,000  Level FlightAware ADS-B
Mon 09:19:12 PM 29.8560 -81.4060 359° North 35,000  Level FlightAware ADS-B
Mon 09:20:07 PM 29.9630 -81.4080 359° North 455 524 35,000  Level FlightAware ADS-B
Mon 09:20:57 PM 30.0680 -81.4100 359° North 453 521 35,000  Level FlightAware ADS-B
Mon 09:21:47 PM 30.1570 -81.4120 359° North 453 521 35,000  Level FlightAware ADS-B
Mon 09:22:27 PM 30.2660 -81.4150 359° North 463 533 35,000  Level FlightAware ADS-B
Mon 09:23:07 PM 30.3550 -81.4160 359° North 473 544 35,000  Level FlightAware ADS-B
Mon 09:23:47 PM 30.4370 -81.4180 359° North 474 545 35,000  Level FlightAware ADS-B
Mon 09:24:27 PM 30.5120 -81.4200 359° North 474 545 35,000  Level FlightAware ADS-B
Mon 09:25:17 PM 30.6050 -81.4210 359° North 474 545 35,000  Level FlightAware ADS-B
Mon 09:25:57 PM 30.6790 -81.4230 359° North 474 545 35,000  Level FlightAware ADS-B
Mon 09:26:37 PM 30.7540 -81.4240 359° North 474 545 35,000  Level FlightAware ADS-B
Mon 09:27:17 PM 30.8290 -81.4260 359° North 474 545 35,000  Level FlightAware ADS-B
Mon 09:27:37 PM 30.9370 -81.3700 24° Northeast 473 544 35,000  Level FlightAware ADS-B
Mon 09:28:32 PM 31.0460 -81.3580 North 472 543 35,000  Level FlightAware ADS-B
Mon 09:29:07 PM 31.1340 -81.3490 North 469 540 35,000  Level FlightAware ADS-B
Mon 09:29:57 PM 31.2350 -81.3390 North 469 540 35,000  Level FlightAware ADS-B
Mon 09:30:52 PM 31.3610 -81.3250 North 465 535 35,000  Level FlightAware ADS-B
Mon 09:31:32 PM 31.4340 -81.3170 North 463 533 35,000  Level FlightAware ADS-B
Mon 09:32:17 PM 31.5280 -81.3070 North 460 529 35,000  Level FlightAware ADS-B
Mon 09:32:52 PM 31.5970 -81.3000 North 460 529 35,000  Level FlightAware ADS-B
Mon 09:33:52 PM 31.7310 -81.2860 North 458 527 35,000  Level FlightAware ADS-B
Mon 09:34:37 PM 31.8370 -81.2740 North 459 528 35,000  Level FlightAware ADS-B
Mon 09:35:17 PM 31.9230 -81.2650 North 457 526 35,000  Level FlightAware ADS-B
Mon 09:35:57 PM 32.0100 -81.2560 North 457 526 35,000  Level FlightAware ADS-B
Mon 09:36:37 PM 32.0940 -81.2470 North 459 528 35,000  Level FlightAware ADS-B
Mon 09:37:17 PM 32.1770 -81.2380 North 460 529 35,000  Level FlightAware ADS-B
Mon 09:38:07 PM 32.2840 -81.2270 North 460 529 35,000  Level FlightAware ADS-B
Mon 09:38:57 PM 32.3890 -81.2150 North 461 531 35,000  Level FlightAware ADS-B
Mon 09:39:42 PM 32.4770 -81.2060 North 461 531 35,000  Level FlightAware ADS-B
Mon 09:41:02 PM 32.6540 -81.2110 359° North 463 533 35,000  Level FlightAware ADS-B
Mon 09:41:42 PM 32.7380 -81.2310 349° North 465 535 35,000  Level FlightAware ADS-B
Mon 09:42:32 PM 32.8440 -81.2550 349° North 465 535 35,000  Level FlightAware ADS-B
Mon 09:43:12 PM 32.9300 -81.2750 349° North 465 535 35,000  Level FlightAware ADS-B
Mon 09:43:57 PM 33.0240 -81.2970 349° North 464 534 35,000  Level FlightAware ADS-B
Mon 09:44:37 PM 33.1070 -81.3160 349° North 464 534 35,000  Level FlightAware ADS-B
Mon 09:45:17 PM 33.1920 -81.3360 349° North 464 534 35,000  Level FlightAware ADS-B
Mon 09:46:02 PM 33.2830 -81.3580 349° North 464 534 35,000  Level FlightAware ADS-B
Mon 09:46:42 PM 33.3630 -81.3770 349° North 465 535 35,000  Level FlightAware ADS-B
Mon 09:47:27 PM 33.4660 -81.4010 349° North 466 536 35,000  Level FlightAware ADS-B
Mon 09:48:07 PM 33.5510 -81.4210 349° North 468 539 35,000  Level FlightAware ADS-B
Mon 09:48:52 PM 33.6460 -81.4440 349° North 468 539 35,000  Level FlightAware ADS-B
Mon 09:49:32 PM 33.7320 -81.4640 349° North 468 539 35,000  Level FlightAware ADS-B
Mon 09:50:17 PM 33.8260 -81.4860 349° North 470 541 35,000  Level FlightAware ADS-B
Mon 09:50:57 PM 33.9120 -81.5070 349° North 470 541 35,000  Level FlightAware ADS-B
Mon 09:51:37 PM 33.9970 -81.5280 348° North 470 541 35,000  Level FlightAware ADS-B
Mon 09:52:22 PM 34.0920 -81.5500 349° North 470 541 35,000  Level FlightAware ADS-B
Mon 09:53:02 PM 34.1790 -81.5710 349° North 471 542 35,000  Level FlightAware ADS-B
Mon 09:53:47 PM 34.2740 -81.5940 349° North 472 543 35,000 141 Level FlightAware ADS-B
Mon 09:54:27 PM 34.3610 -81.6150 349° North 472 543 35,200 750 Climbing FlightAware ADS-B
Mon 09:55:07 PM 34.4430 -81.6340 349° North 460 529 36,000 565 Climbing FlightAware ADS-B
Mon 09:55:52 PM 34.5370 -81.6570 349° North 454 522 36,000  Level FlightAware ADS-B
Mon 09:56:32 PM 34.6200 -81.6770 349° North 460 529 36,000  Level FlightAware ADS-B
Mon 09:57:12 PM 34.6990 -81.6970 348° North 462 532 36,000  Level FlightAware ADS-B
Mon 09:57:48 PM 34.7883 -81.7185 349° North 461 531 36,000  Level FlightAware ADS-B
Mon 09:58:21 PM 34.8577 -81.7357 349° North 462 532 36,000  Level FlightAware ADS-B
Mon 09:58:51 PM 34.9211 -81.7513 349° North 464 534 36,000  Level FlightAware ADS-B
Mon 09:59:22 PM 34.9854 -81.7669 349° North 465 535 36,000 98 Level FlightAware ADS-B
Mon 09:59:52 PM 35.0497 -81.7825 349° North 463 533 36,100  Climbing FlightAware ADS-B
Mon 10:00:23 PM 35.1135 -81.7982 349° North 462 532 36,000 -98 Descending FlightAware ADS-B
Mon 10:00:53 PM 35.1767 -81.8138 349° North 460 529 36,000  Level FlightAware ADS-B
Mon 10:01:23 PM 35.2391 -81.8291 349° North 458 527 36,000  Level FlightAware ADS-B
Mon 10:01:53 PM 35.3021 -81.8448 349° North 458 527 36,000  Level FlightAware ADS-B
Mon 10:02:23 PM 35.3644 -81.8601 349° North 457 526 36,000  Level FlightAware ADS-B
Mon 10:02:53 PM 35.4267 -81.8755 349° North 455 524 36,000  Level FlightAware ADS-B
Mon 10:03:23 PM 35.4886 -81.8909 349° North 453 521 36,000  Level FlightAware ADS-B
Mon 10:03:54 PM 35.5516 -81.9064 349° North 451 519 36,000  Level FlightAware ADS-B
Mon 10:04:26 PM 35.6160 -81.9225 349° North 448 516 36,000  Level FlightAware ADS-B
Mon 10:04:56 PM 35.6774 -81.9378 349° North 446 513 36,000  Level FlightAware ADS-B
Mon 10:05:32 PM 35.7509 -81.9561 349° North 446 513 36,000  Level FlightAware ADS-B
Mon 10:06:03 PM 35.8122 -81.9715 348° North 446 513 36,000 -98 Level FlightAware ADS-B
Mon 10:06:33 PM 35.8735 -81.9868 349° North 447 514 35,900  Descending FlightAware ADS-B
Mon 10:07:04 PM 35.9359 -82.0027 348° North 448 516 36,000 97 Climbing FlightAware ADS-B
Mon 10:07:35 PM 35.9999 -82.0189 348° North 449 517 36,000  Level FlightAware ADS-B
Mon 10:08:06 PM 36.0620 -82.0344 349° North 451 519 36,000  Level FlightAware ADS-B
Mon 10:08:49 PM 36.1513 -82.0569 349° North 450 518 36,000  Level FlightAware ADS-B
Mon 10:09:21 PM 36.2159 -82.0731 349° North 452 520 36,000  Level FlightAware ADS-B
Mon 10:09:51 PM 36.2782 -82.0889 348° North 453 521 36,000  Level FlightAware ADS-B
Mon 10:10:24 PM 36.3450 -82.1057 349° North 452 520 36,000  Level FlightAware ADS-B
Mon 10:10:39 PM 36.3769 -82.1122 351° North 454 522 36,000  Level FlightAware ADS-B
Mon 10:10:55 PM 36.4095 -82.1163 354° North 455 524 36,000  Level FlightAware ADS-B
Mon 10:11:15 PM 36.4530 -82.1184 358° North 458 527 36,000  Level FlightAware ADS-B
Mon 10:11:36 PM 36.4961 -82.1166 North 461 531 36,000  Level FlightAware ADS-B
Mon 10:12:06 PM 36.5617 -82.1064 North 463 533 36,000  Level FlightAware ADS-B
Mon 10:12:39 PM 36.6299 -82.0937 North 463 533 36,000  Level FlightAware ADS-B
Mon 10:13:10 PM 36.6961 -82.0818 North 463 533 36,000  Level FlightAware ADS-B
Mon 10:13:44 PM 36.7677 -82.0687 North 462 532 36,000  Level FlightAware ADS-B
Mon 10:14:28 PM 36.8604 -82.0514 North 458 527 36,000  Level FlightAware ADS-B
Mon 10:14:59 PM 36.9255 -82.0436 North 450 518 36,000  Level FlightAware ADS-B
Mon 10:15:08 PM 36.9445 -82.0465 353° North 446 513 36,000  Level FlightAware ADS-B
Mon 10:16:09 PM 37.0537 -82.1129 334° Northwest 435 501 36,000  Level FlightAware ADS-B
Mon 10:16:43 PM 37.1135 -82.1561 330° Northwest 432 497 36,000 -83 Level FlightAware ADS-B
Mon 10:17:21 PM 37.1782 -82.2033 330° Northwest 430 495 35,900  Descending FlightAware ADS-B
Mon 10:17:51 PM 37.2302 -82.2416 330° Northwest 430 495 36,000 95 Climbing FlightAware ADS-B
Mon 10:18:24 PM 37.2874 -82.2841 329° Northwest 432 497 36,000  Level FlightAware ADS-B
Mon 10:18:56 PM 37.3410 -82.3239 329° Northwest 433 498 36,000  Level FlightAware ADS-B
Mon 10:19:29 PM 37.3993 -82.3671 330° Northwest 433 498 36,000  Level FlightAware ADS-B
Mon 10:20:00 PM 37.4523 -82.4067 329° Northwest 434 499 36,000  Level FlightAware ADS-B
Mon 10:20:47 PM 37.5240 -82.4610 329° Northwest 434 499 36,000  Level FlightAware ADS-B
Mon 10:21:06 PM 37.5654 -82.4911 330° Northwest 434 499 36,000  Level FlightAware ADS-B
Mon 10:21:36 PM 37.6176 -82.5303 329° Northwest 433 498 36,000  Level FlightAware ADS-B
Mon 10:22:07 PM 37.6705 -82.5701 329° Northwest 433 498 36,000  Level FlightAware ADS-B
Mon 10:22:42 PM 37.7307 -82.6151 329° Northwest 432 497 36,000  Level FlightAware ADS-B
Mon 10:23:14 PM 37.7858 -82.6565 329° Northwest 432 497 36,000  Level FlightAware ADS-B
Mon 10:23:45 PM 37.8389 -82.6964 329° Northwest 434 499 36,000  Level FlightAware ADS-B
Mon 10:24:16 PM 37.8932 -82.7373 329° Northwest 435 501 36,000  Level FlightAware ADS-B
Mon 10:24:55 PM 37.9614 -82.7887 329° Northwest 436 502 36,000  Level FlightAware ADS-B
Mon 10:25:42 PM 38.0410 -82.8490 329° Northwest 438 504 36,000  Level FlightAware ADS-B
Mon 10:25:48 PM 38.0527 -82.8577 330° Northwest 438 504 36,000  Level FlightAware ADS-B
Mon 10:26:22 PM 38.1121 -82.9027 329° Northwest 439 505 36,000  Level FlightAware ADS-B
Mon 10:27:07 PM 38.1870 -82.9600 329° Northwest 437 503 36,000  Level FlightAware ADS-B
Mon 10:27:17 PM 38.2084 -82.9763 329° Northwest 438 504 36,000  Level FlightAware ADS-B
Mon 10:27:49 PM 38.2630 -83.0179 329° Northwest 439 505 36,000  Level FlightAware ADS-B
Mon 10:28:20 PM 38.3176 -83.0594 329° Northwest 438 504 36,000  Level FlightAware ADS-B
Mon 10:28:59 PM 38.3843 -83.1103 329° Northwest 437 503 36,000  Level FlightAware ADS-B
Mon 10:29:57 PM 38.4790 -83.1830 329° Northwest 435 501 36,000  Level FlightAware ADS-B
Mon 10:30:32 PM 38.5370 -83.2290 328° Northwest 435 501 36,000  Level FlightAware ADS-B
Mon 10:31:22 PM 38.6100 -83.2870 328° Northwest 435 501 36,000  Level FlightAware ADS-B
Mon 10:32:02 PM 38.6680 -83.3330 328° Northwest 435 501 36,000  Level FlightAware ADS-B
Mon 10:32:42 PM 38.7260 -83.3800 328° Northwest 435 501 36,000  Level FlightAware ADS-B
Mon 10:33:27 PM 38.8430 -83.4640 331° Northwest 436 502 36,000  Level FlightAware ADS-B
Mon 10:34:07 PM 38.9130 -83.5180 329° Northwest 434 499 36,000  Level FlightAware ADS-B
Mon 10:34:47 PM 38.9840 -83.5740 328° Northwest 433 498 36,000  Level FlightAware ADS-B
Mon 10:35:32 PM 39.0580 -83.6320 329° Northwest 430 495 36,000  Level FlightAware ADS-B
Mon 10:36:12 PM 39.1270 -83.6860 329° Northwest 429 494 36,000  Level FlightAware ADS-B
Mon 10:36:52 PM 39.1890 -83.7350 329° Northwest 429 494 36,000  Level FlightAware ADS-B
Mon 10:37:37 PM 39.2580 -83.7910 328° Northwest 429 494 36,000  Level FlightAware ADS-B
Mon 10:38:17 PM 39.3390 -83.8530 329° Northwest 426 490 36,000  Level FlightAware ADS-B
Mon 10:39:02 PM 39.4120 -83.9110 328° Northwest 426 490 36,000  Level FlightAware ADS-B
Mon 10:39:57 PM 39.5010 -83.9810 329° Northwest 427 491 36,000  Level FlightAware ADS-B
Mon 10:40:37 PM 39.5750 -84.0400 328° Northwest 428 493 36,000  Level FlightAware ADS-B
Mon 10:41:32 PM 39.6550 -84.1050 328° Northwest 428 493 36,000  Level FlightAware ADS-B
Mon 10:42:12 PM 39.7130 -84.1520 328° Northwest 428 493 36,000  Level FlightAware ADS-B
Mon 10:42:52 PM 39.8000 -84.2200 329° Northwest 427 491 36,000  Level FlightAware ADS-B
Mon 10:43:37 PM 39.8780 -84.2830 328° Northwest 425 489 36,000  Level FlightAware ADS-B
Mon 10:44:22 PM 39.9510 -84.3420 328° Northwest 426 490 36,000  Level FlightAware ADS-B
Mon 10:45:02 PM 40.0120 -84.3920 328° Northwest 427 491 36,000  Level FlightAware ADS-B
Mon 10:45:47 PM 40.0960 -84.4590 329° Northwest 429 494 36,000  Level FlightAware ADS-B
Mon 10:46:27 PM 40.1590 -84.5110 328° Northwest 430 495 36,000  Level FlightAware ADS-B
Mon 10:47:12 PM 40.2380 -84.5750 328° Northwest 431 496 36,000  Level FlightAware ADS-B
Mon 10:47:57 PM 40.3150 -84.6390 328° Northwest 432 497 36,000  Level FlightAware ADS-B
Mon 10:48:37 PM 40.3840 -84.6940 329° Northwest 433 498 36,000  Level FlightAware ADS-B
Mon 10:49:17 PM 40.4520 -84.7500 328° Northwest 436 502 36,000  Level FlightAware ADS-B
Mon 10:49:57 PM 40.5200 -84.8060 328° Northwest 437 503 36,000  Level FlightAware ADS-B
Mon 10:50:42 PM 40.5940 -84.8680 328° Northwest 437 503 36,000  Level FlightAware ADS-B
Mon 10:51:27 PM 40.6750 -84.9340 328° Northwest 438 504 36,000  Level FlightAware ADS-B
Mon 10:52:07 PM 40.7290 -85.0090 314° West 428 493 36,000 -225 Level FlightAware ADS-B
Mon 10:52:47 PM 40.7750 -85.0930 306° West 429 494 35,700 -706 Descending FlightAware ADS-B
Mon 10:53:32 PM 40.8260 -85.1860 306° West 430 495 35,000 -918 Descending FlightAware ADS-B
Mon 10:54:12 PM 40.8730 -85.2720 306° West 432 497 34,400 -988 Descending FlightAware ADS-B
Mon 10:54:57 PM 40.9270 -85.3720 306° West 437 503 33,600 -1,059 Descending FlightAware ADS-B
Mon 10:55:37 PM 40.9750 -85.4600 306° West 442 509 32,900 -975 Descending FlightAware ADS-B
Mon 10:56:17 PM 41.0230 -85.5480 306° West 443 510 32,300 -918 Descending FlightAware ADS-B
Mon 10:57:02 PM 41.0750 -85.6440 306° West 445 512 31,600 -975 Descending FlightAware ADS-B
Mon 10:57:37 PM 41.1180 -85.7250 305° West 445 512 31,000 -1,050 Descending FlightAware ADS-B
Mon 10:58:22 PM 41.1710 -85.8240 305° West 446 513 30,200 -988 Descending FlightAware ADS-B
Mon 10:59:02 PM 41.2190 -85.9130 306° West 453 521 29,600 -988 Descending FlightAware ADS-B
Mon 10:59:47 PM 41.2730 -86.0150 305° West 460 529 28,800 -1,400 Descending FlightAware ADS-B
Mon 11:00:32 PM 41.3080 -86.1340 291° West 451 519 27,500 -2,329 Descending FlightAware ADS-B
Mon 11:01:12 PM 41.3340 -86.2370 289° West 451 519 25,500 -3,035 Descending FlightAware ADS-B
Mon 11:01:57 PM 41.3620 -86.3480 289° West 453 521 23,200 -3,106 Descending FlightAware ADS-B
Mon 11:02:37 PM 41.3900 -86.4600 288° West 443 510 21,100 -2,775 Descending FlightAware ADS-B
Mon 11:03:17 PM 41.4160 -86.5630 289° West 434 499 19,500 -2,250 Descending FlightAware ADS-B
Mon 11:03:57 PM 41.4400 -86.6630 288° West 432 497 18,100 -2,047 Descending FlightAware ADS-B
Mon 11:04:42 PM 41.4680 -86.7770 288° West 419 482 16,600 -1,933 Descending FlightAware ADS-B
Mon 11:05:27 PM 41.4950 -86.8840 289° West 414 476 15,200 -1,976 Descending FlightAware ADS-B
Mon 11:06:07 PM 41.5190 -86.9840 288° West 412 474 13,800 -1,950 Descending FlightAware ADS-B
Mon 11:06:47 PM 41.5420 -87.0770 288° West 397 457 12,600 -1,129 Descending FlightAware ADS-B
Mon 11:07:32 PM 41.5670 -87.1830 288° West 388 447 12,200 -282 Descending FlightAware ADS-B
Mon 11:08:12 PM 41.5970 -87.2700 295° West 402 463 12,200  Level FlightAware ADS-B
Mon 11:08:52 PM 41.6450 -87.3460 310° West 413 475 12,200  Level FlightAware ADS-B
Mon 11:09:37 PM 41.6990 -87.4320 310° West 398 458 12,200  Level FlightAware ADS-B
Mon 11:10:17 PM 41.7430 -87.5040 309° West 345 397 12,200  Level FlightAware ADS-B
Mon 11:11:02 PM 41.7860 -87.5730 310° West 294 338 12,200  Level FlightAware ADS-B
Mon 11:11:42 PM 41.8170 -87.6250 309° West 265 305 12,200 -525 Level FlightAware ADS-B
Mon 11:12:22 PM 41.8490 -87.6750 311° West 258 297 11,500 -1,553 Descending FlightAware ADS-B
Mon 11:13:07 PM 41.8920 -87.7180 323° Northwest 275 316 10,000 -2,057 Descending FlightAware ADS-B
Mon 11:13:32 PM 41.9260 -87.7200 357° North 279 321 9,100 -1,855 Descending FlightAware ADS-B
Mon 11:14:02 PM 41.9640 -87.7230 357° North 281 323 8,300 -1,114 Descending FlightAware ADS-B
Mon 11:14:42 PM 42.0080 -87.7140 North 263 303 7,800 -1,200 Descending FlightAware ADS-B
Mon 11:15:12 PM 42.0400 -87.6860 33° Northeast 261 300 6,900 -1,800 Descending FlightAware ADS-B
Mon 11:15:42 PM 42.0730 -87.6560 34° Northeast 261 300 6,000 -1,636 Descending FlightAware ADS-B
Mon 11:16:07 PM 42.0960 -87.6340 35° Northeast 255 293 5,400 -1,200 Descending FlightAware ADS-B
Mon 11:16:22 PM 42.1140 -87.6260 18° North 261 300 5,200 -400 Descending FlightAware ADS-B
Mon 11:16:37 PM 42.1300 -87.6230 North 253 291 5,200  Level FlightAware ADS-B
Mon 11:17:17 PM 42.1700 -87.6360 346° North 240 276 5,200 -218 Level FlightAware ADS-B
Mon 11:17:32 PM 42.1760 -87.6580 290° West 212 244 5,000 -1,200 Descending FlightAware ADS-B
Mon 11:17:52 PM 42.1700 -87.6810 251° West 200 230 4,500 -873 Descending FlightAware ADS-B
Mon 11:18:27 PM 42.1550 -87.7180 241° Southwest 199 229 4,200 -450 Descending FlightAware ADS-B
Mon 11:18:32 PM 42.1520 -87.7230 231° Southwest 198 228 4,200 -267 Level FlightAware ADS-B
Mon 11:19:12 PM 42.1250 -87.7550 221° Southwest 197 227 4,000 -554 Descending FlightAware ADS-B
Mon 11:19:37 PM 42.1070 -87.7750 220° Southwest 194 223 3,600 -1,091 Descending FlightAware ADS-B
Mon 11:20:07 PM 42.0860 -87.7980 219° Southwest 193 222 3,000 -1,100 Descending FlightAware ADS-B
Mon 11:20:37 PM 42.0670 -87.8200 221° Southwest 176 203 2,500 -873 Descending FlightAware ADS-B
Mon 11:21:02 PM 42.0520 -87.8370 220° Southwest 146 168 2,200 -655 Descending FlightAware ADS-B
Mon 11:21:32 PM 42.0380 -87.8510 217° Southwest 125 144 1,900 -655 Descending FlightAware ADS-B
Mon 11:21:57 PM 42.0270 -87.8640 221° Southwest 127 146 1,600 -764 Descending FlightAware ADS-B
Mon 11:22:27 PM 42.0130 -87.8790 219° Southwest 129 148 1,200 -700 Descending FlightAware ADS-B
Mon 11:22:57 PM 41.9990 -87.8940 219° Southwest 127 146 900 -600 Descending FlightAware ADS-B

Login

Don't have an account? Register now (free) for customized features, flight alerts, and more!